createdAt,value
2018-06-05T05:01:28.155Z,2.47
2018-06-05T05:06:31.463Z,2.07
2018-06-05T05:11:34.859Z,2.30
2018-06-05T05:16:38.184Z,2.10
2018-06-05T05:21:41.626Z,2.20
2018-06-05T05:26:45.683Z,2.10
2018-06-05T05:31:49.186Z,1.90
2018-06-05T05:36:53.514Z,2.07
2018-06-05T05:41:57.563Z,2.10
2018-06-05T05:47:00.901Z,2.23
2018-06-05T05:52:04.911Z,2.37
2018-06-05T05:57:09.196Z,2.20
2018-06-05T06:02:12.442Z,2.60
2018-06-05T06:07:15.731Z,2.40
2018-06-05T06:12:19.787Z,1.87
2018-06-05T06:17:23.072Z,2.60
2018-06-05T06:22:27.126Z,5.00
2018-06-05T06:27:30.403Z,4.07
2018-06-05T06:32:33.695Z,3.43
2018-06-05T06:37:36.982Z,2.87
2018-06-05T06:42:40.292Z,2.43
2018-06-05T06:47:43.591Z,2.70
2018-06-05T06:52:46.870Z,3.17
2018-06-05T06:57:50.932Z,3.57
2018-06-05T07:02:54.211Z,3.60
2018-06-05T07:07:57.508Z,3.30
2018-06-05T07:13:00.778Z,3.30
2018-06-05T07:18:04.061Z,4.27
2018-06-05T07:23:08.115Z,3.37
2018-06-05T07:28:11.400Z,3.93
2018-06-05T07:33:15.452Z,4.20
2018-06-05T07:38:18.736Z,4.10
2018-06-05T07:43:22.022Z,3.77
2018-06-05T07:48:25.322Z,3.50
2018-06-05T07:53:28.775Z,4.03
2018-06-05T07:58:32.599Z,4.20
2018-06-05T08:03:36.659Z,4.40
2018-06-05T08:08:39.941Z,3.70
2018-06-05T08:13:44.008Z,4.87
2018-06-05T08:18:47.314Z,4.60
2018-06-05T08:23:50.594Z,5.37
2018-06-05T08:28:53.919Z,4.80
2018-06-05T08:33:57.429Z,4.63
2018-06-05T08:39:00.711Z,3.80
2018-06-05T08:44:03.991Z,4.27
2018-06-05T08:49:07.263Z,4.03
2018-06-05T08:54:10.568Z,5.33
2018-06-05T08:59:14.604Z,4.60
2018-06-05T09:04:18.655Z,4.60
2018-06-05T09:09:21.936Z,5.73
2018-06-05T09:14:25.215Z,4.77
2018-06-05T09:19:28.533Z,4.60
2018-06-05T09:24:31.855Z,6.00
2018-06-05T09:29:35.140Z,6.23
2018-06-05T09:34:38.446Z,5.30
2018-06-05T09:39:41.748Z,7.17
2018-06-05T09:44:45.230Z,6.73
2018-06-05T09:49:49.279Z,5.20
2018-06-05T09:54:52.767Z,5.87
2018-06-05T09:59:56.936Z,5.07
2018-06-05T10:05:00.215Z,4.37
2018-06-05T10:10:04.340Z,4.20
2018-06-05T10:15:08.399Z,4.47
2018-06-05T10:20:11.674Z,4.63
2018-06-05T10:25:15.727Z,5.90
2018-06-05T10:30:19.524Z,4.77
2018-06-05T10:35:22.806Z,5.23
2018-06-05T10:40:26.091Z,4.93
2018-06-05T10:45:29.893Z,4.20
2018-06-05T10:50:33.194Z,4.43
2018-06-05T10:55:37.234Z,4.70
2018-06-05T11:00:40.527Z,4.23
2018-06-05T11:05:44.604Z,4.30
2018-06-05T11:10:48.078Z,4.33
2018-06-05T11:15:52.139Z,4.33
2018-06-05T11:20:55.422Z,3.90
2018-06-05T11:25:59.859Z,4.40
2018-06-05T11:31:03.931Z,4.73
2018-06-05T11:36:07.244Z,4.57
2018-06-05T11:41:10.718Z,3.60
2018-06-05T11:46:14.791Z,4.33
2018-06-05T11:51:18.084Z,3.80
2018-06-05T11:56:21.376Z,3.80
2018-06-05T12:01:25.424Z,2.97
2018-06-05T12:06:28.707Z,3.73
2018-06-05T12:11:32.756Z,4.10
2018-06-05T12:16:36.358Z,4.13
2018-06-05T12:21:40.692Z,3.00
2018-06-05T12:26:44.753Z,3.80
2018-06-05T12:31:48.052Z,3.47
2018-06-05T12:36:51.360Z,3.70
2018-06-05T12:41:54.671Z,3.63
2018-06-05T12:46:58.180Z,3.80
2018-06-05T12:52:02.218Z,3.77
2018-06-05T12:57:05.503Z,4.50
2018-06-05T13:02:08.786Z,3.73
2018-06-05T13:07:12.068Z,4.00
2018-06-05T13:12:15.559Z,4.90
2018-06-05T13:17:19.023Z,5.13
2018-06-05T13:22:23.202Z,4.80
2018-06-05T13:27:27.246Z,4.43
2018-06-05T13:32:30.752Z,4.60
2018-06-05T13:37:34.093Z,3.37
2018-06-05T13:42:37.328Z,3.58
2018-06-05T13:47:40.621Z,4.00
2018-06-05T13:52:43.908Z,4.20
2018-06-05T13:57:47.192Z,4.20
2018-06-05T14:02:51.238Z,4.22
2018-06-05T14:07:55.291Z,3.72
2018-06-05T14:12:58.571Z,5.00
2018-06-05T14:18:02.627Z,4.80
2018-06-05T14:23:05.907Z,4.55
2018-06-05T14:28:09.958Z,4.72
2018-06-05T14:33:14.007Z,4.37
2018-06-05T14:38:17.297Z,3.85
2018-06-05T14:43:20.583Z,4.10
2018-06-05T14:48:23.868Z,3.72
2018-06-05T14:53:27.150Z,4.03
2018-06-05T14:58:30.451Z,3.92
2018-06-05T15:03:33.724Z,3.87
2018-06-05T15:08:37.776Z,3.78
2018-06-05T15:13:41.832Z,4.80
2018-06-05T15:18:45.114Z,4.75
2018-06-05T15:23:49.161Z,4.68
2018-06-05T15:28:52.457Z,4.37
2018-06-05T15:33:55.746Z,5.00
2018-06-05T15:38:59.022Z,4.53
2018-06-05T15:44:02.307Z,4.57
2018-06-05T15:49:05.593Z,4.60
2018-06-05T15:54:09.640Z,4.82
2018-06-05T15:59:12.914Z,4.70
2018-06-05T16:04:16.219Z,4.32
2018-06-05T16:09:19.564Z,3.50
2018-06-05T16:14:22.842Z,5.25
2018-06-05T16:19:26.134Z,4.37
2018-06-05T16:24:29.455Z,4.30
2018-06-05T16:29:32.752Z,4.72
2018-06-05T16:34:36.232Z,4.57
2018-06-05T16:39:39.531Z,4.00
2018-06-05T16:44:43.832Z,4.32
2018-06-05T16:49:47.150Z,4.40
2018-06-05T16:54:50.446Z,4.20
2018-06-05T16:59:53.771Z,3.85
2018-06-05T17:04:57.069Z,4.30
2018-06-05T17:10:00.638Z,4.20
2018-06-05T17:15:04.711Z,3.83
2018-06-05T17:20:08.183Z,3.80
2018-06-05T17:25:12.228Z,3.95
2018-06-05T17:30:15.539Z,4.82
2018-06-05T17:35:18.845Z,4.32
2018-06-05T17:40:46.491Z,3.87
2018-06-05T17:45:49.972Z,3.60
2018-06-05T17:50:53.256Z,3.90
2018-06-05T17:55:56.567Z,3.47
2018-06-05T18:00:59.857Z,3.80
2018-06-05T18:06:04.070Z,4.10
2018-06-05T18:11:07.380Z,3.33
2018-06-05T18:16:10.683Z,4.57
2018-06-05T18:21:14.173Z,3.90
2018-06-05T18:26:18.212Z,3.85
2018-06-05T18:31:21.693Z,2.87
2018-06-05T18:36:25.744Z,3.70
2018-06-05T18:41:29.436Z,3.50
2018-06-05T18:46:33.489Z,3.67
2018-06-05T18:51:36.800Z,3.17
2018-06-05T18:56:40.098Z,3.67
2018-06-05T19:01:43.402Z,3.62
2018-06-05T19:06:47.475Z,3.60
2018-06-05T19:11:51.253Z,3.92
2018-06-05T19:16:55.298Z,3.90
2018-06-05T19:21:58.593Z,3.72
2018-06-05T19:27:02.640Z,4.50
2018-06-05T19:32:05.926Z,4.73
2018-06-05T19:37:09.988Z,4.90
2018-06-05T19:42:13.303Z,5.60
2018-06-05T19:47:16.604Z,4.57
2018-06-05T19:52:19.875Z,5.23
2018-06-05T19:57:23.188Z,5.37
2018-06-05T20:02:26.512Z,4.50
2018-06-05T20:07:30.725Z,4.60
2018-06-05T20:12:35.037Z,4.73
2018-06-05T20:17:38.558Z,5.77
2018-06-05T20:22:41.868Z,5.73
2018-06-05T20:27:45.167Z,5.57
2018-06-05T20:32:48.455Z,5.43
2018-06-05T20:37:51.740Z,7.20
2018-06-05T20:42:55.842Z,5.53
2018-06-05T20:47:59.105Z,5.80
2018-06-05T20:53:02.520Z,6.03
2018-06-05T20:58:06.846Z,5.80
2018-06-05T21:03:10.265Z,5.73
2018-06-05T21:08:14.596Z,5.63
2018-06-05T21:13:18.818Z,5.73
2018-06-05T21:18:22.875Z,6.10
2018-06-05T21:23:26.292Z,7.50
2018-06-05T21:28:29.796Z,5.90
2018-06-05T21:33:33.870Z,7.13
2018-06-05T21:38:37.179Z,6.10
2018-06-05T21:43:40.892Z,5.90
2018-06-05T21:48:44.172Z,5.70
2018-06-05T21:53:47.487Z,5.17
2018-06-05T21:58:51.532Z,6.17
2018-06-05T22:03:54.820Z,5.50
2018-06-05T22:08:58.099Z,6.13
2018-06-05T22:14:01.407Z,5.77
2018-06-05T22:19:04.720Z,5.47
2018-06-05T22:24:07.999Z,5.87
2018-06-05T22:29:23.659Z,6.37
